sensor_id;sensor_type;location;lat;lon;timestamp;temperature;humidity
16412;DHT22;8315;52.104;6.304;2022-09-09T00:01:14;15.90;98.40
16412;DHT22;8315;52.104;6.304;2022-09-09T00:03:53;15.80;98.40
16412;DHT22;8315;52.104;6.304;2022-09-09T00:06:23;15.70;98.40
16412;DHT22;8315;52.104;6.304;2022-09-09T00:09:01;15.90;98.40
16412;DHT22;8315;52.104;6.304;2022-09-09T00:11:36;15.90;98.40
16412;DHT22;8315;52.104;6.304;2022-09-09T00:14:13;16.00;98.40
16412;DHT22;8315;52.104;6.304;2022-09-09T00:16:49;16.20;98.40
16412;DHT22;8315;52.104;6.304;2022-09-09T00:19:25;15.90;98.40
16412;DHT22;8315;52.104;6.304;2022-09-09T00:21:57;16.10;98.40
16412;DHT22;8315;52.104;6.304;2022-09-09T00:24:31;16.30;98.40
16412;DHT22;8315;52.104;6.304;2022-09-09T00:27:01;16.40;98.40
16412;DHT22;8315;52.104;6.304;2022-09-09T00:29:33;16.40;98.40
16412;DHT22;8315;52.104;6.304;2022-09-09T00:32:07;16.30;98.40
16412;DHT22;8315;52.104;6.304;2022-09-09T00:34:39;16.40;98.40
16412;DHT22;8315;52.104;6.304;2022-09-09T00:37:11;16.30;98.40
16412;DHT22;8315;52.104;6.304;2022-09-09T00:39:39;16.30;98.40
16412;DHT22;8315;52.104;6.304;2022-09-09T00:42:11;16.40;98.40
16412;DHT22;8315;52.104;6.304;2022-09-09T00:44:45;16.40;98.40
16412;DHT22;8315;52.104;6.304;2022-09-09T00:47:26;16.40;98.40
16412;DHT22;8315;52.104;6.304;2022-09-09T00:50:10;16.20;98.40
16412;DHT22;8315;52.104;6.304;2022-09-09T00:52:44;16.00;98.40
16412;DHT22;8315;52.104;6.304;2022-09-09T00:55:15;16.00;98.40
16412;DHT22;8315;52.104;6.304;2022-09-09T00:57:46;16.10;98.40
16412;DHT22;8315;52.104;6.304;2022-09-09T01:00:16;16.10;98.40
16412;DHT22;8315;52.104;6.304;2022-09-09T01:02:49;16.10;98.40
16412;DHT22;8315;52.104;6.304;2022-09-09T01:05:25;16.00;98.40
16412;DHT22;8315;52.104;6.304;2022-09-09T01:07:54;16.00;98.40
16412;DHT22;8315;52.104;6.304;2022-09-09T01:10:22;16.00;98.40
16412;DHT22;8315;52.104;6.304;2022-09-09T01:12:54;16.10;98.40
16412;DHT22;8315;52.104;6.304;2022-09-09T01:15:24;16.10;98.40
16412;DHT22;8315;52.104;6.304;2022-09-09T01:17:55;16.20;98.40
16412;DHT22;8315;52.104;6.304;2022-09-09T01:20:27;16.00;98.40
16412;DHT22;8315;52.104;6.304;2022-09-09T01:23:04;15.60;98.40
16412;DHT22;8315;52.104;6.304;2022-09-09T01:28:39;15.70;98.40
16412;DHT22;8315;52.104;6.304;2022-09-09T01:31:12;15.90;98.40
16412;DHT22;8315;52.104;6.304;2022-09-09T01:33:45;15.60;98.40
16412;DHT22;8315;52.104;6.304;2022-09-09T01:36:13;15.50;98.40
16412;DHT22;8315;52.104;6.304;2022-09-09T01:38:48;15.60;98.40
16412;DHT22;8315;52.104;6.304;2022-09-09T01:41:17;15.60;98.40
16412;DHT22;8315;52.104;6.304;2022-09-09T01:44:00;15.70;98.40
16412;DHT22;8315;52.104;6.304;2022-09-09T01:46:31;15.70;98.40
16412;DHT22;8315;52.104;6.304;2022-09-09T01:48:59;15.70;98.40
16412;DHT22;8315;52.104;6.304;2022-09-09T01:51:27;15.80;98.40
16412;DHT22;8315;52.104;6.304;2022-09-09T01:53:56;15.60;98.40
16412;DHT22;8315;52.104;6.304;2022-09-09T01:56:31;15.50;98.40
16412;DHT22;8315;52.104;6.304;2022-09-09T01:59:14;15.40;98.40
16412;DHT22;8315;52.104;6.304;2022-09-09T02:01:57;15.40;98.40
16412;DHT22;8315;52.104;6.304;2022-09-09T02:04:36;15.30;98.40
16412;DHT22;8315;52.104;6.304;2022-09-09T02:07:15;15.30;98.40
16412;DHT22;8315;52.104;6.304;2022-09-09T02:09:54;15.20;98.40
16412;DHT22;8315;52.104;6.304;2022-09-09T02:12:24;15.20;98.40
16412;DHT22;8315;52.104;6.304;2022-09-09T02:14:59;15.10;98.40
16412;DHT22;8315;52.104;6.304;2022-09-09T02:17:37;15.00;98.40
16412;DHT22;8315;52.104;6.304;2022-09-09T02:20:13;15.10;98.40
16412;DHT22;8315;52.104;6.304;2022-09-09T02:22:47;15.00;98.40
16412;DHT22;8315;52.104;6.304;2022-09-09T02:25:18;14.90;98.40
16412;DHT22;8315;52.104;6.304;2022-09-09T02:27:47;14.80;98.40
16412;DHT22;8315;52.104;6.304;2022-09-09T02:30:18;14.70;98.40
16412;DHT22;8315;52.104;6.304;2022-09-09T02:32:54;14.60;98.40
16412;DHT22;8315;52.104;6.304;2022-09-09T02:35:30;14.80;98.40
16412;DHT22;8315;52.104;6.304;2022-09-09T02:37:59;15.00;98.40
16412;DHT22;8315;52.104;6.304;2022-09-09T02:40:29;15.10;98.40
16412;DHT22;8315;52.104;6.304;2022-09-09T02:43:00;15.00;98.40
16412;DHT22;8315;52.104;6.304;2022-09-09T02:45:34;15.00;98.40
16412;DHT22;8315;52.104;6.304;2022-09-09T02:48:05;15.20;98.40
16412;DHT22;8315;52.104;6.304;2022-09-09T02:50:38;15.30;98.40
16412;DHT22;8315;52.104;6.304;2022-09-09T02:53:11;15.30;98.40
16412;DHT22;8315;52.104;6.304;2022-09-09T02:55:45;15.20;98.40
16412;DHT22;8315;52.104;6.304;2022-09-09T02:58:15;15.20;98.40
16412;DHT22;8315;52.104;6.304;2022-09-09T03:00:50;15.00;98.40
16412;DHT22;8315;52.104;6.304;2022-09-09T03:03:19;15.00;98.40
16412;DHT22;8315;52.104;6.304;2022-09-09T03:05:49;14.90;98.40
16412;DHT22;8315;52.104;6.304;2022-09-09T03:08:16;14.90;98.40
16412;DHT22;8315;52.104;6.304;2022-09-09T03:10:44;14.90;98.40
16412;DHT22;8315;52.104;6.304;2022-09-09T03:13:13;14.90;98.40
16412;DHT22;8315;52.104;6.304;2022-09-09T03:15:41;14.90;98.40
16412;DHT22;8315;52.104;6.304;2022-09-09T03:18:14;15.00;98.40
16412;DHT22;8315;52.104;6.304;2022-09-09T03:20:41;15.00;98.40
16412;DHT22;8315;52.104;6.304;2022-09-09T03:23:08;15.00;98.40
16412;DHT22;8315;52.104;6.304;2022-09-09T03:25:35;14.90;98.40
16412;DHT22;8315;52.104;6.304;2022-09-09T03:28:02;14.70;98.40
16412;DHT22;8315;52.104;6.304;2022-09-09T03:30:29;14.70;98.40
16412;DHT22;8315;52.104;6.304;2022-09-09T03:32:55;14.90;98.40
16412;DHT22;8315;52.104;6.304;2022-09-09T03:35:29;14.80;98.40
16412;DHT22;8315;52.104;6.304;2022-09-09T03:37:56;14.70;98.40
16412;DHT22;8315;52.104;6.304;2022-09-09T03:40:23;14.80;98.40
16412;DHT22;8315;52.104;6.304;2022-09-09T03:42:50;14.60;98.40
16412;DHT22;8315;52.104;6.304;2022-09-09T03:45:17;14.60;98.40
16412;DHT22;8315;52.104;6.304;2022-09-09T03:47:44;14.60;98.40
16412;DHT22;8315;52.104;6.304;2022-09-09T03:50:11;14.50;98.40
16412;DHT22;8315;52.104;6.304;2022-09-09T03:52:45;14.60;98.40
16412;DHT22;8315;52.104;6.304;2022-09-09T03:55:19;14.60;98.40
16412;DHT22;8315;52.104;6.304;2022-09-09T03:57:47;14.60;98.40
16412;DHT22;8315;52.104;6.304;2022-09-09T04:00:15;14.70;98.40
16412;DHT22;8315;52.104;6.304;2022-09-09T04:02:43;14.60;98.40
16412;DHT22;8315;52.104;6.304;2022-09-09T04:05:14;14.40;98.40
16412;DHT22;8315;52.104;6.304;2022-09-09T04:07:44;14.40;98.40
16412;DHT22;8315;52.104;6.304;2022-09-09T04:10:11;14.20;98.40
16412;DHT22;8315;52.104;6.304;2022-09-09T04:12:39;14.30;98.40
16412;DHT22;8315;52.104;6.304;2022-09-09T04:15:06;14.10;98.40
16412;DHT22;8315;52.104;6.304;2022-09-09T04:17:35;14.10;98.40
16412;DHT22;8315;52.104;6.304;2022-09-09T04:20:03;14.20;98.40
16412;DHT22;8315;52.104;6.304;2022-09-09T04:22:30;14.20;98.40
16412;DHT22;8315;52.104;6.304;2022-09-09T04:24:59;14.40;98.40
16412;DHT22;8315;52.104;6.304;2022-09-09T04:27:28;14.40;98.40
16412;DHT22;8315;52.104;6.304;2022-09-09T04:29:55;14.40;98.40
16412;DHT22;8315;52.104;6.304;2022-09-09T04:32:25;14.20;98.40
16412;DHT22;8315;52.104;6.304;2022-09-09T04:34:53;14.20;98.40
16412;DHT22;8315;52.104;6.304;2022-09-09T04:37:20;14.30;98.40
16412;DHT22;8315;52.104;6.304;2022-09-09T04:39:47;14.30;98.40
16412;DHT22;8315;52.104;6.304;2022-09-09T04:42:15;14.20;98.40
16412;DHT22;8315;52.104;6.304;2022-09-09T04:44:42;14.40;98.40
16412;DHT22;8315;52.104;6.304;2022-09-09T04:47:10;14.30;98.40
16412;DHT22;8315;52.104;6.304;2022-09-09T04:49:37;14.50;98.40
16412;DHT22;8315;52.104;6.304;2022-09-09T04:52:04;14.60;98.40
16412;DHT22;8315;52.104;6.304;2022-09-09T04:54:33;14.70;98.40
16412;DHT22;8315;52.104;6.304;2022-09-09T04:57:00;14.80;98.40
16412;DHT22;8315;52.104;6.304;2022-09-09T04:59:29;14.70;98.40
16412;DHT22;8315;52.104;6.304;2022-09-09T05:01:58;14.80;98.40
16412;DHT22;8315;52.104;6.304;2022-09-09T05:04:26;14.90;98.40
16412;DHT22;8315;52.104;6.304;2022-09-09T05:06:54;14.90;98.40
16412;DHT22;8315;52.104;6.304;2022-09-09T05:09:22;14.80;98.40
16412;DHT22;8315;52.104;6.304;2022-09-09T05:11:50;14.80;98.40
16412;DHT22;8315;52.104;6.304;2022-09-09T05:14:29;14.80;98.40
16412;DHT22;8315;52.104;6.304;2022-09-09T05:16:59;14.80;98.40
16412;DHT22;8315;52.104;6.304;2022-09-09T05:19:26;14.90;98.40
16412;DHT22;8315;52.104;6.304;2022-09-09T05:21:53;14.90;98.40
16412;DHT22;8315;52.104;6.304;2022-09-09T05:24:26;14.90;98.40
16412;DHT22;8315;52.104;6.304;2022-09-09T05:26:56;15.00;98.40
16412;DHT22;8315;52.104;6.304;2022-09-09T05:29:25;14.90;98.40
16412;DHT22;8315;52.104;6.304;2022-09-09T05:31:53;14.90;98.40
16412;DHT22;8315;52.104;6.304;2022-09-09T05:34:20;15.00;98.40
16412;DHT22;8315;52.104;6.304;2022-09-09T05:36:49;15.20;98.40
16412;DHT22;8315;52.104;6.304;2022-09-09T05:39:16;15.10;98.40
16412;DHT22;8315;52.104;6.304;2022-09-09T05:41:43;15.10;98.40
16412;DHT22;8315;52.104;6.304;2022-09-09T05:44:10;15.20;98.40
16412;DHT22;8315;52.104;6.304;2022-09-09T05:46:38;15.20;98.40
16412;DHT22;8315;52.104;6.304;2022-09-09T05:49:07;15.30;98.40
16412;DHT22;8315;52.104;6.304;2022-09-09T05:51:35;15.10;98.40
16412;DHT22;8315;52.104;6.304;2022-09-09T05:54:06;15.10;98.40
16412;DHT22;8315;52.104;6.304;2022-09-09T05:56:37;15.20;98.40
16412;DHT22;8315;52.104;6.304;2022-09-09T05:59:06;15.20;98.40
16412;DHT22;8315;52.104;6.304;2022-09-09T06:01:34;15.30;98.40
16412;DHT22;8315;52.104;6.304;2022-09-09T06:04:07;15.40;98.40
16412;DHT22;8315;52.104;6.304;2022-09-09T06:06:35;15.40;98.40
16412;DHT22;8315;52.104;6.304;2022-09-09T06:09:05;15.40;98.40
16412;DHT22;8315;52.104;6.304;2022-09-09T06:11:35;15.50;98.40
16412;DHT22;8315;52.104;6.304;2022-09-09T06:14:03;15.60;98.40
16412;DHT22;8315;52.104;6.304;2022-09-09T06:16:31;15.50;98.40
16412;DHT22;8315;52.104;6.304;2022-09-09T06:18:59;15.50;98.40
16412;DHT22;8315;52.104;6.304;2022-09-09T06:21:29;15.50;98.40
16412;DHT22;8315;52.104;6.304;2022-09-09T06:23:59;15.60;98.40
16412;DHT22;8315;52.104;6.304;2022-09-09T06:26:26;15.70;98.40
16412;DHT22;8315;52.104;6.304;2022-09-09T06:28:55;15.60;98.40
16412;DHT22;8315;52.104;6.304;2022-09-09T06:31:24;15.70;98.40
16412;DHT22;8315;52.104;6.304;2022-09-09T06:33:54;15.70;98.40
16412;DHT22;8315;52.104;6.304;2022-09-09T06:36:24;15.70;98.40
16412;DHT22;8315;52.104;6.304;2022-09-09T06:38:53;15.70;98.40
16412;DHT22;8315;52.104;6.304;2022-09-09T06:41:22;15.80;98.40
16412;DHT22;8315;52.104;6.304;2022-09-09T06:43:50;15.80;98.40
16412;DHT22;8315;52.104;6.304;2022-09-09T06:46:27;15.80;98.40
16412;DHT22;8315;52.104;6.304;2022-09-09T06:48:56;15.80;98.40
16412;DHT22;8315;52.104;6.304;2022-09-09T06:51:25;15.80;98.40
16412;DHT22;8315;52.104;6.304;2022-09-09T06:53:54;15.90;98.40
16412;DHT22;8315;52.104;6.304;2022-09-09T06:56:25;15.90;98.40
16412;DHT22;8315;52.104;6.304;2022-09-09T06:58:54;15.90;98.40
16412;DHT22;8315;52.104;6.304;2022-09-09T07:01:26;15.80;98.40
16412;DHT22;8315;52.104;6.304;2022-09-09T07:03:56;15.80;98.40
16412;DHT22;8315;52.104;6.304;2022-09-09T07:06:26;15.90;98.40
16412;DHT22;8315;52.104;6.304;2022-09-09T07:08:56;15.80;98.40
16412;DHT22;8315;52.104;6.304;2022-09-09T07:11:26;15.90;98.40
16412;DHT22;8315;52.104;6.304;2022-09-09T07:13:56;16.00;98.40
16412;DHT22;8315;52.104;6.304;2022-09-09T07:16:24;16.20;98.40
16412;DHT22;8315;52.104;6.304;2022-09-09T07:18:53;16.20;98.40
16412;DHT22;8315;52.104;6.304;2022-09-09T07:21:23;16.10;98.40
16412;DHT22;8315;52.104;6.304;2022-09-09T07:23:52;16.20;98.40
16412;DHT22;8315;52.104;6.304;2022-09-09T07:26:22;16.20;98.40
16412;DHT22;8315;52.104;6.304;2022-09-09T07:28:51;16.30;98.40
16412;DHT22;8315;52.104;6.304;2022-09-09T07:31:18;16.50;98.40
16412;DHT22;8315;52.104;6.304;2022-09-09T07:33:47;16.50;98.40
16412;DHT22;8315;52.104;6.304;2022-09-09T07:36:15;16.60;98.40
16412;DHT22;8315;52.104;6.304;2022-09-09T07:38:44;16.70;98.40
16412;DHT22;8315;52.104;6.304;2022-09-09T07:41:13;16.70;98.40
16412;DHT22;8315;52.104;6.304;2022-09-09T07:43:43;16.50;98.40
16412;DHT22;8315;52.104;6.304;2022-09-09T07:46:12;16.50;98.40
16412;DHT22;8315;52.104;6.304;2022-09-09T07:48:43;16.60;98.40
16412;DHT22;8315;52.104;6.304;2022-09-09T07:51:11;16.70;98.40
16412;DHT22;8315;52.104;6.304;2022-09-09T07:53:40;16.60;98.40
16412;DHT22;8315;52.104;6.304;2022-09-09T07:56:08;16.60;98.40
16412;DHT22;8315;52.104;6.304;2022-09-09T07:58:37;16.60;98.40
16412;DHT22;8315;52.104;6.304;2022-09-09T08:01:10;16.60;98.40
16412;DHT22;8315;52.104;6.304;2022-09-09T08:03:37;16.60;98.40
16412;DHT22;8315;52.104;6.304;2022-09-09T08:06:05;16.60;98.40
16412;DHT22;8315;52.104;6.304;2022-09-09T08:08:34;16.70;98.40
16412;DHT22;8315;52.104;6.304;2022-09-09T08:11:05;16.80;98.40
16412;DHT22;8315;52.104;6.304;2022-09-09T08:13:34;16.80;98.40
16412;DHT22;8315;52.104;6.304;2022-09-09T08:16:06;16.70;98.40
16412;DHT22;8315;52.104;6.304;2022-09-09T08:18:35;16.80;98.40
16412;DHT22;8315;52.104;6.304;2022-09-09T08:21:07;16.90;98.40
16412;DHT22;8315;52.104;6.304;2022-09-09T08:23:37;16.80;98.40
16412;DHT22;8315;52.104;6.304;2022-09-09T08:26:05;16.80;98.40
16412;DHT22;8315;52.104;6.304;2022-09-09T08:28:35;16.80;98.40
16412;DHT22;8315;52.104;6.304;2022-09-09T08:31:06;16.90;98.40
16412;DHT22;8315;52.104;6.304;2022-09-09T08:33:33;16.90;98.40
16412;DHT22;8315;52.104;6.304;2022-09-09T08:36:03;17.00;98.40
16412;DHT22;8315;52.104;6.304;2022-09-09T08:38:31;17.10;98.40
16412;DHT22;8315;52.104;6.304;2022-09-09T08:41:03;17.20;98.40
16412;DHT22;8315;52.104;6.304;2022-09-09T08:43:35;17.40;98.40
16412;DHT22;8315;52.104;6.304;2022-09-09T08:46:03;17.60;98.40
16412;DHT22;8315;52.104;6.304;2022-09-09T08:48:40;17.60;98.40
16412;DHT22;8315;52.104;6.304;2022-09-09T08:51:14;17.60;98.40
16412;DHT22;8315;52.104;6.304;2022-09-09T08:53:44;17.50;98.40
16412;DHT22;8315;52.104;6.304;2022-09-09T08:56:14;17.50;98.40
16412;DHT22;8315;52.104;6.304;2022-09-09T08:58:53;17.60;98.40
16412;DHT22;8315;52.104;6.304;2022-09-09T09:01:33;17.70;98.40
16412;DHT22;8315;52.104;6.304;2022-09-09T09:04:07;17.80;98.40
16412;DHT22;8315;52.104;6.304;2022-09-09T09:06:58;17.80;98.40
16412;DHT22;8315;52.104;6.304;2022-09-09T09:09:31;17.90;98.40
16412;DHT22;8315;52.104;6.304;2022-09-09T09:12:08;18.10;98.40
16412;DHT22;8315;52.104;6.304;2022-09-09T09:14:41;18.10;98.40
16412;DHT22;8315;52.104;6.304;2022-09-09T09:17:09;18.10;98.40
16412;DHT22;8315;52.104;6.304;2022-09-09T09:19:40;18.10;98.40
16412;DHT22;8315;52.104;6.304;2022-09-09T09:22:14;17.90;98.40
16412;DHT22;8315;52.104;6.304;2022-09-09T09:24:45;17.80;98.40
16412;DHT22;8315;52.104;6.304;2022-09-09T09:27:21;17.80;98.40
16412;DHT22;8315;52.104;6.304;2022-09-09T09:29:56;17.90;98.40
16412;DHT22;8315;52.104;6.304;2022-09-09T09:32:25;17.90;98.40
16412;DHT22;8315;52.104;6.304;2022-09-09T09:34:56;17.90;98.40
16412;DHT22;8315;52.104;6.304;2022-09-09T09:37:26;17.90;98.40
16412;DHT22;8315;52.104;6.304;2022-09-09T09:40:07;17.80;98.40
16412;DHT22;8315;52.104;6.304;2022-09-09T09:42:35;17.80;98.40
16412;DHT22;8315;52.104;6.304;2022-09-09T09:45:07;17.80;98.40
16412;DHT22;8315;52.104;6.304;2022-09-09T09:47:35;17.80;98.40
16412;DHT22;8315;52.104;6.304;2022-09-09T09:50:18;18.00;98.40
16412;DHT22;8315;52.104;6.304;2022-09-09T09:52:54;18.10;98.40
16412;DHT22;8315;52.104;6.304;2022-09-09T09:55:23;18.20;98.40
16412;DHT22;8315;52.104;6.304;2022-09-09T09:57:50;18.30;98.40
16412;DHT22;8315;52.104;6.304;2022-09-09T10:00:19;18.30;98.40
16412;DHT22;8315;52.104;6.304;2022-09-09T10:02:55;18.30;98.40
16412;DHT22;8315;52.104;6.304;2022-09-09T10:05:26;18.40;98.40
16412;DHT22;8315;52.104;6.304;2022-09-09T10:08:02;18.40;98.40
16412;DHT22;8315;52.104;6.304;2022-09-09T10:10:34;18.40;98.40
16412;DHT22;8315;52.104;6.304;2022-09-09T10:13:10;18.40;98.40
16412;DHT22;8315;52.104;6.304;2022-09-09T10:15:42;18.40;98.40
16412;DHT22;8315;52.104;6.304;2022-09-09T10:18:19;18.50;98.40
16412;DHT22;8315;52.104;6.304;2022-09-09T10:20:58;18.80;98.40
16412;DHT22;8315;52.104;6.304;2022-09-09T10:23:39;18.90;98.40
16412;DHT22;8315;52.104;6.304;2022-09-09T10:26:16;19.00;98.40
16412;DHT22;8315;52.104;6.304;2022-09-09T10:28:59;19.00;98.40
16412;DHT22;8315;52.104;6.304;2022-09-09T10:31:37;19.00;98.40
16412;DHT22;8315;52.104;6.304;2022-09-09T10:34:12;18.90;98.40
16412;DHT22;8315;52.104;6.304;2022-09-09T10:37:00;18.80;98.40
16412;DHT22;8315;52.104;6.304;2022-09-09T10:39:33;18.80;98.40
16412;DHT22;8315;52.104;6.304;2022-09-09T10:42:03;18.70;98.40
16412;DHT22;8315;52.104;6.304;2022-09-09T10:44:38;18.90;98.40
16412;DHT22;8315;52.104;6.304;2022-09-09T10:47:23;18.80;98.40
16412;DHT22;8315;52.104;6.304;2022-09-09T10:50:13;18.80;98.40
16412;DHT22;8315;52.104;6.304;2022-09-09T10:52:49;18.80;98.40
16412;DHT22;8315;52.104;6.304;2022-09-09T10:55:24;18.70;98.40
16412;DHT22;8315;52.104;6.304;2022-09-09T10:57:53;18.80;98.40
16412;DHT22;8315;52.104;6.304;2022-09-09T11:00:21;18.60;98.40
16412;DHT22;8315;52.104;6.304;2022-09-09T11:02:51;18.60;98.40
16412;DHT22;8315;52.104;6.304;2022-09-09T11:05:20;18.60;98.40
16412;DHT22;8315;52.104;6.304;2022-09-09T11:07:49;18.70;98.40
16412;DHT22;8315;52.104;6.304;2022-09-09T11:10:21;18.90;98.40
16412;DHT22;8315;52.104;6.304;2022-09-09T11:12:59;18.80;98.40
16412;DHT22;8315;52.104;6.304;2022-09-09T11:15:30;18.70;98.40
16412;DHT22;8315;52.104;6.304;2022-09-09T11:18:01;18.80;98.40
16412;DHT22;8315;52.104;6.304;2022-09-09T11:20:28;18.80;98.40
16412;DHT22;8315;52.104;6.304;2022-09-09T11:22:58;18.60;98.40
16412;DHT22;8315;52.104;6.304;2022-09-09T11:25:30;18.50;98.40
16412;DHT22;8315;52.104;6.304;2022-09-09T11:28:05;18.60;98.40
16412;DHT22;8315;52.104;6.304;2022-09-09T11:30:44;18.60;98.40
16412;DHT22;8315;52.104;6.304;2022-09-09T11:33:31;18.70;98.40
16412;DHT22;8315;52.104;6.304;2022-09-09T11:36:24;18.70;98.40
16412;DHT22;8315;52.104;6.304;2022-09-09T11:39:02;18.80;98.40
16412;DHT22;8315;52.104;6.304;2022-09-09T11:41:39;19.00;98.40
16412;DHT22;8315;52.104;6.304;2022-09-09T11:44:10;19.20;98.40
16412;DHT22;8315;52.104;6.304;2022-09-09T11:46:38;19.00;98.40
16412;DHT22;8315;52.104;6.304;2022-09-09T11:49:21;19.00;98.40
16412;DHT22;8315;52.104;6.304;2022-09-09T11:51:53;19.10;98.40
16412;DHT22;8315;52.104;6.304;2022-09-09T11:54:26;18.90;98.40
16412;DHT22;8315;52.104;6.304;2022-09-09T11:56:56;19.00;98.40
16412;DHT22;8315;52.104;6.304;2022-09-09T11:59:24;19.00;98.40
16412;DHT22;8315;52.104;6.304;2022-09-09T12:01:54;18.80;98.40
16412;DHT22;8315;52.104;6.304;2022-09-09T12:04:32;18.60;98.40
16412;DHT22;8315;52.104;6.304;2022-09-09T12:07:03;18.60;98.40
16412;DHT22;8315;52.104;6.304;2022-09-09T12:12:26;18.60;98.40
16412;DHT22;8315;52.104;6.304;2022-09-09T12:14:58;18.50;98.40
16412;DHT22;8315;52.104;6.304;2022-09-09T12:17:27;18.40;98.40
16412;DHT22;8315;52.104;6.304;2022-09-09T12:20:06;18.20;98.40
16412;DHT22;8315;52.104;6.304;2022-09-09T12:22:39;18.00;98.40
16412;DHT22;8315;52.104;6.304;2022-09-09T12:25:15;17.90;98.40
16412;DHT22;8315;52.104;6.304;2022-09-09T12:27:50;17.90;98.40
16412;DHT22;8315;52.104;6.304;2022-09-09T12:30:27;17.90;98.40
16412;DHT22;8315;52.104;6.304;2022-09-09T12:32:59;17.70;98.40
16412;DHT22;8315;52.104;6.304;2022-09-09T12:35:27;17.80;98.40
16412;DHT22;8315;52.104;6.304;2022-09-09T12:37:56;17.90;98.40
16412;DHT22;8315;52.104;6.304;2022-09-09T12:40:26;18.00;98.40
16412;DHT22;8315;52.104;6.304;2022-09-09T12:42:55;17.80;98.40
16412;DHT22;8315;52.104;6.304;2022-09-09T12:45:23;17.90;98.40
16412;DHT22;8315;52.104;6.304;2022-09-09T12:47:51;17.90;98.40
16412;DHT22;8315;52.104;6.304;2022-09-09T12:50:20;17.90;98.40
16412;DHT22;8315;52.104;6.304;2022-09-09T12:52:49;17.80;98.40
16412;DHT22;8315;52.104;6.304;2022-09-09T12:55:19;18.00;98.40
16412;DHT22;8315;52.104;6.304;2022-09-09T12:57:50;18.10;98.40
16412;DHT22;8315;52.104;6.304;2022-09-09T13:00:20;18.20;98.40
16412;DHT22;8315;52.104;6.304;2022-09-09T13:02:49;18.10;98.40
16412;DHT22;8315;52.104;6.304;2022-09-09T13:05:18;18.20;98.40
16412;DHT22;8315;52.104;6.304;2022-09-09T13:07:46;18.20;98.40
16412;DHT22;8315;52.104;6.304;2022-09-09T13:10:14;18.20;98.40
16412;DHT22;8315;52.104;6.304;2022-09-09T13:12:42;17.90;98.40
16412;DHT22;8315;52.104;6.304;2022-09-09T13:15:12;17.70;98.40
16412;DHT22;8315;52.104;6.304;2022-09-09T13:17:50;18.00;98.40
16412;DHT22;8315;52.104;6.304;2022-09-09T13:20:19;17.90;98.40
16412;DHT22;8315;52.104;6.304;2022-09-09T13:22:47;18.10;98.40
16412;DHT22;8315;52.104;6.304;2022-09-09T13:25:20;18.60;98.40
16412;DHT22;8315;52.104;6.304;2022-09-09T13:27:51;18.70;98.40
16412;DHT22;8315;52.104;6.304;2022-09-09T13:30:21;18.50;98.40
16412;DHT22;8315;52.104;6.304;2022-09-09T13:33:00;18.60;98.40
16412;DHT22;8315;52.104;6.304;2022-09-09T13:35:28;18.70;98.40
16412;DHT22;8315;52.104;6.304;2022-09-09T13:37:55;18.70;98.40
16412;DHT22;8315;52.104;6.304;2022-09-09T13:40:22;18.50;98.40
16412;DHT22;8315;52.104;6.304;2022-09-09T13:42:51;18.30;98.40
16412;DHT22;8315;52.104;6.304;2022-09-09T13:45:20;18.10;98.40
16412;DHT22;8315;52.104;6.304;2022-09-09T13:47:47;18.10;98.40
16412;DHT22;8315;52.104;6.304;2022-09-09T13:50:19;18.20;98.40
16412;DHT22;8315;52.104;6.304;2022-09-09T13:52:48;18.30;98.40
16412;DHT22;8315;52.104;6.304;2022-09-09T13:55:16;18.40;98.40
16412;DHT22;8315;52.104;6.304;2022-09-09T13:57:50;18.50;98.40
16412;DHT22;8315;52.104;6.304;2022-09-09T14:00:17;18.80;98.40
16412;DHT22;8315;52.104;6.304;2022-09-09T14:02:44;18.80;98.40
16412;DHT22;8315;52.104;6.304;2022-09-09T14:05:10;18.80;98.40
16412;DHT22;8315;52.104;6.304;2022-09-09T14:07:39;18.80;98.40
16412;DHT22;8315;52.104;6.304;2022-09-09T14:10:07;18.70;98.40
16412;DHT22;8315;52.104;6.304;2022-09-09T14:12:34;18.60;98.40
16412;DHT22;8315;52.104;6.304;2022-09-09T14:15:02;18.70;98.40
16412;DHT22;8315;52.104;6.304;2022-09-09T14:17:29;18.70;98.40
16412;DHT22;8315;52.104;6.304;2022-09-09T14:19:56;18.70;98.40
16412;DHT22;8315;52.104;6.304;2022-09-09T14:22:23;18.70;98.40
16412;DHT22;8315;52.104;6.304;2022-09-09T14:24:53;18.60;98.40
16412;DHT22;8315;52.104;6.304;2022-09-09T14:27:19;18.80;98.40
16412;DHT22;8315;52.104;6.304;2022-09-09T14:29:46;19.00;98.40
16412;DHT22;8315;52.104;6.304;2022-09-09T14:32:13;18.90;98.40
16412;DHT22;8315;52.104;6.304;2022-09-09T14:34:40;18.80;98.40
16412;DHT22;8315;52.104;6.304;2022-09-09T14:37:07;18.80;98.40
16412;DHT22;8315;52.104;6.304;2022-09-09T14:39:34;18.70;98.40
16412;DHT22;8315;52.104;6.304;2022-09-09T14:42:02;18.50;98.40
16412;DHT22;8315;52.104;6.304;2022-09-09T14:44:29;18.10;98.40
16412;DHT22;8315;52.104;6.304;2022-09-09T14:46:57;17.80;98.40
16412;DHT22;8315;52.104;6.304;2022-09-09T14:49:23;17.70;98.40
16412;DHT22;8315;52.104;6.304;2022-09-09T14:51:50;17.80;98.40
16412;DHT22;8315;52.104;6.304;2022-09-09T14:54:17;17.90;98.40
16412;DHT22;8315;52.104;6.304;2022-09-09T14:56:44;18.10;98.40
16412;DHT22;8315;52.104;6.304;2022-09-09T14:59:12;18.20;98.40
16412;DHT22;8315;52.104;6.304;2022-09-09T15:01:39;18.30;98.40
16412;DHT22;8315;52.104;6.304;2022-09-09T15:04:05;18.70;98.40
16412;DHT22;8315;52.104;6.304;2022-09-09T15:06:34;18.80;98.40
16412;DHT22;8315;52.104;6.304;2022-09-09T15:09:03;18.50;98.40
16412;DHT22;8315;52.104;6.304;2022-09-09T15:11:33;18.30;98.40
16412;DHT22;8315;52.104;6.304;2022-09-09T15:14:03;18.30;98.40
16412;DHT22;8315;52.104;6.304;2022-09-09T15:16:31;18.40;98.40
16412;DHT22;8315;52.104;6.304;2022-09-09T15:18:58;18.40;98.40
16412;DHT22;8315;52.104;6.304;2022-09-09T15:21:26;18.50;98.40
16412;DHT22;8315;52.104;6.304;2022-09-09T15:23:54;18.70;98.40
16412;DHT22;8315;52.104;6.304;2022-09-09T15:26:21;18.80;98.40
16412;DHT22;8315;52.104;6.304;2022-09-09T15:28:48;18.80;98.40
16412;DHT22;8315;52.104;6.304;2022-09-09T15:31:17;18.80;98.40
16412;DHT22;8315;52.104;6.304;2022-09-09T15:33:49;18.70;98.40
16412;DHT22;8315;52.104;6.304;2022-09-09T15:36:18;18.80;98.40
16412;DHT22;8315;52.104;6.304;2022-09-09T15:38:45;18.90;98.40
16412;DHT22;8315;52.104;6.304;2022-09-09T15:41:12;19.00;98.40
16412;DHT22;8315;52.104;6.304;2022-09-09T15:43:42;19.10;98.40
16412;DHT22;8315;52.104;6.304;2022-09-09T15:46:21;18.90;98.40
16412;DHT22;8315;52.104;6.304;2022-09-09T15:48:55;18.90;98.40
16412;DHT22;8315;52.104;6.304;2022-09-09T15:51:23;19.10;98.40
16412;DHT22;8315;52.104;6.304;2022-09-09T15:53:53;19.10;98.40
16412;DHT22;8315;52.104;6.304;2022-09-09T15:56:21;19.00;98.40
16412;DHT22;8315;52.104;6.304;2022-09-09T15:58:48;19.00;98.40
16412;DHT22;8315;52.104;6.304;2022-09-09T16:01:15;18.90;98.40
16412;DHT22;8315;52.104;6.304;2022-09-09T16:03:42;18.90;98.40
16412;DHT22;8315;52.104;6.304;2022-09-09T16:06:12;19.00;98.40
16412;DHT22;8315;52.104;6.304;2022-09-09T16:08:40;18.90;98.40
16412;DHT22;8315;52.104;6.304;2022-09-09T16:11:09;18.90;98.40
16412;DHT22;8315;52.104;6.304;2022-09-09T16:13:37;19.00;98.40